Davison Army Air Field
KDAA : rendu visible

Aérodrome :











RETROUVEZ-NOUS SUR...

 
LOGIN :

S'inscrire | Disclaimer

   EN    FR    IT 

 









Légende :    VFR   VFR Marginal   IFR   IFR Intensif   IFR Très Intensif
Visi : 
Plafond : 
>= 8 km
>= 3000ft
5 à 8 km
1000 à 3000 ft
1500m à 5 km
500 à 1000 ft
800 à 1500m
200 à 500 ft
< 800m
< 200 ft
Symboles :   Orages  Brouillard  Fortes neiges  Fortes précipitations  Vent > 20 kt






- Altitude de l'aérodrome : 73 ft


KDAA - Davison Army Air Field

DERNIER METAR :
  • 272056Z AUTO 33009KT 10SM OVC050 10/M02 A2976 RMK AO2 SLP081 T00961021 55004 $

METARs EXPIRÉS :
  • 271956Z AUTO 31005KT 10SM OVC050 09/M03 A2976 RMK AO2 SLP081 T00941026 $
  • 271856Z AUTO 26006KT 10SM OVC050 09/M02 A2976 RMK AO2 SLP081 T00931020 $

TAF TAF KDAA
Valide du 27 à 18h jusqu'au 29 à 00h UTC


271800Z 2718/2824 28012KT 9999 BKN030 620305 QNH2975INS
BECMG 2723/2724 32006KT 9999 BKN020 620204 QNH2980INS
BECMG 2814/2815 31010G15KT 9999 BKN030 620302 QNH2994INS TX10/2719Z TN00/2812Z



MET'MAP, la Météo Aéronautique d'un coup d'oeil ! - Copyright ORBIFLY Décembre 2007 - Disclaimer

ORBIFLY MET'MAP TEAM :

Programmation & Développement : Alexandra Zaïnal
Sur une idée originale de : Baudouin d'Aumeries
Assistance à la programmation : Marc-Olivier Méhu
Soutien technique & logistique : Manuel Goepfert

Contact : metmap@orbifly.com




SOURCES & CREDITS :

   NOAA       Earth
Advisory